Date,TemperatureHighF,TemperatureAvgF,TemperatureLowF,DewpointHighF,DewpointAvgF,DewpointLowF,HumidityHigh,HumidityAvg,HumidityLow,PressureMaxIn,PressureMinIn,WindSpeedMaxMPH,WindSpeedAvgMPH,GustSpeedMaxMPH,PrecipitationSumIn
2013-1-1,46.0,39.9,34.4,44.1,35.7,28.2,93,85,78,30.36,30.09,15,8,15,0.00
2013-1-2,39.0,34.5,32.0,29.8,28.4,26.7,87,78,67,30.42,30.33,13,4,13,0.00
2013-1-3,40.7,32.8,32.0,32.2,29.2,28.1,92,86,73,30.54,30.41,12,3,12,0.00
2013-1-7,53.6,47.7,32.3,38.0,34.4,29.4,90,60,49,30.41,30.15,14,3,14,0.00
2013-1-8,47.2,45.7,43.3,45.3,41.5,33.6,94,86,67,30.16,30.01,10,3,10,1.24
2013-1-9,56.0,52.7,46.7,54.3,51.0,45.1,94,94,94,30.17,29.95,22,7,22,1.18
2013-1-10,56.9,53.3,48.4,54.5,48.5,44.1,95,84,70,30.03,29.96,12,3,12,0.04
2013-1-11,70.4,58.6,48.0,61.6,50.7,42.9,91,76,53,30.00,29.81,14,4,14,0.00
2013-1-12,65.6,54.7,35.5,63.8,51.7,30.5,94,90,77,29.99,29.71,24,7,24,0.23
2013-1-13,41.1,35.1,32.0,30.5,25.0,20.4,82,67,54,30.35,29.99,22,11,22,0.00
2013-1-14,42.7,35.9,32.1,28.5,24.1,20.4,72,62,51,30.42,30.27,12,5,12,0.00
2013-1-15,36.2,33.7,32.0,30.8,26.9,20.6,91,77,58,30.31,30.22,13,6,13,0.06
2013-1-16,46.6,37.0,32.0,27.2,24.4,20.5,81,62,41,30.38,30.23,12,3,12,0.05
2013-1-17,57.2,44.0,32.6,37.8,31.3,24.4,81,62,42,30.56,30.31,16,4,16,0.00
2013-1-18,60.6,45.4,32.0,38.9,33.9,27.5,91,67,43,30.57,30.32,12,2,12,0.00
2013-1-19,63.3,50.9,37.4,47.2,41.3,33.8,91,71,54,30.32,30.19,12,2,12,0.00
2013-1-20,68.4,50.3,34.4,48.4,40.1,31.5,92,71,39,30.27,30.11,10,2,10,0.00
2013-1-21,54.8,45.2,37.9,40.7,34.0,29.0,91,66,48,30.36,30.16,13,4,13,0.00
2013-1-22,64.8,50.3,35.6,49.2,39.7,26.8,85,67,56,30.38,30.23,9,2,9,0.03
2013-1-23,71.4,61.6,50.8,57.2,53.1,46.5,86,74,60,30.33,30.16,12,4,12,0.03
2013-1-24,77.7,64.8,52.6,61.4,56.0,48.8,91,74,55,30.22,30.05,10,3,10,0.00
2013-1-25,55.7,49.7,47.9,48.6,43.6,40.2,91,79,71,30.25,30.06,12,4,12,0.00
2013-1-26,51.3,48.2,44.8,48.1,44.9,39.0,94,88,72,30.27,30.15,8,3,8,0.00
2013-1-27,74.5,61.8,48.9,63.0,56.9,47.2,95,85,63,30.15,29.95,14,5,14,0.01
2013-1-28,76.9,71.1,66.2,66.9,63.9,62.8,90,79,66,30.02,29.86,15,6,15,0.00
2013-1-29,77.9,66.2,53.5,66.5,58.7,33.2,91,78,48,29.87,29.46,25,9,25,0.22
2013-1-30,53.6,45.9,33.3,36.0,29.0,22.1,75,53,34,30.21,29.71,33,11,33,0.00
2013-1-31,67.3,50.9,32.0,33.5,27.8,21.8,79,44,24,30.35,30.13,20,4,20,0.00
2013-2-1,58.4,45.6,32.0,39.3,29.4,19.3,67,53,43,30.45,30.22,15,4,15,0.00
2013-2-2,65.0,55.0,42.2,47.4,40.8,34.1,81,60,36,30.37,30.18,15,4,15,0.00
2013-2-3,69.4,53.1,34.6,42.5,33.8,30.6,89,54,26,30.38,30.02,13,2,13,0.00
2013-2-4,70.5,60.3,53.3,58.0,49.8,33.1,90,70,42,30.02,29.82,10,4,10,0.02
2013-2-5,68.0,60.6,56.4,61.7,57.0,53.5,94,88,73,30.05,29.90,10,3,10,0.01
2013-2-6,73.2,61.9,55.6,62.7,56.7,53.3,95,84,57,30.06,29.89,16,4,16,0.02
2013-2-7,78.7,64.0,54.7,60.7,54.3,44.6,92,73,35,30.13,29.82,25,9,25,0.00
2013-2-8,62.4,52.7,43.5,46.8,35.5,26.6,76,55,27,30.29,30.13,17,5,17,0.00
2013-2-9,58.6,48.8,44.2,56.8,45.2,35.4,94,87,71,30.19,29.78,18,7,18,0.00
2013-2-10,65.7,57.5,46.1,63.7,42.0,29.2,95,61,27,30.06,29.69,29,6,29,0.49
2013-2-11,53.2,50.1,46.5,41.2,36.0,31.3,79,59,48,30.21,30.03,13,5,13,0.00
2013-2-12,49.2,46.5,41.4,47.0,43.5,37.4,93,89,79,30.09,29.89,20,5,20,0.30
2013-2-13,55.0,44.9,38.1,40.0,35.7,33.9,86,72,47,30.22,30.08,16,5,16,0.00
2013-2-14,66.9,52.6,36.1,45.0,37.7,32.3,89,60,29,30.16,30.04,12,2,12,0.00
2013-2-15,52.5,46.5,40.3,39.8,30.0,21.3,72,53,34,30.45,30.12,16,7,16,0.00
2013-2-16,54.4,50.5,39.0,30.7,29.3,23.7,62,44,37,30.47,30.24,12,3,12,0.00
2013-2-17,69.8,66.0,56.5,38.7,37.3,34.0,43,35,28,30.14,29.94,18,6,18,0.00
2013-2-18,77.3,64.0,51.5,57.7,43.3,32.1,82,49,31,30.16,29.77,24,12,24,0.00
2013-2-19,64.0,52.3,39.2,39.2,29.9,26.3,69,44,29,30.37,30.17,15,4,15,0.00
2013-2-20,50.6,43.9,40.4,39.8,37.0,33.0,88,77,51,30.21,29.83,16,7,16,0.16
2013-2-21,66.9,52.8,41.7,51.4,40.0,30.8,93,67,27,29.98,29.64,26,9,26,0.10
2013-2-22,46.9,39.8,32.0,37.5,28.1,23.3,79,64,49,30.21,29.96,16,6,16,0.00
2013-2-23,52.6,41.8,32.1,32.1,28.7,24.6,83,61,44,30.15,29.98,14,2,14,0.00
2013-2-24,68.5,52.0,32.1,46.4,38.1,27.1,84,61,38,29.99,29.64,16,6,16,0.00
2013-2-25,59.4,51.7,39.8,51.8,40.7,31.1,86,68,40,29.73,29.51,30,11,30,0.03
2013-2-26,56.6,45.4,37.8,35.5,32.7,30.5,77,62,42,29.95,29.73,28,12,28,0.00
2013-2-27,55.0,45.0,34.7,33.7,28.8,21.8,83,56,30,30.29,29.94,23,9,23,0.00
2013-2-28,57.0,45.8,35.6,31.0,28.0,24.8,76,52,33,30.36,30.23,20,9,20,0.00
2013-3-1,53.6,43.1,32.0,33.4,29.6,25.1,83,60,42,30.36,30.25,13,5,13,0.00
2013-3-2,53.6,41.2,32.0,29.6,26.0,21.5,75,56,36,30.50,30.30,18,7,18,0.00
2013-3-3,70.0,54.3,36.1,43.8,32.9,23.5,69,46,31,30.30,29.84,16,6,16,0.00
2013-3-4,85.5,67.5,55.1,52.1,46.3,40.6,69,50,21,29.83,29.61,20,7,20,0.00
2013-3-5,65.1,50.2,42.2,45.7,28.2,21.2,69,44,27,30.43,29.79,30,13,30,0.00
2013-3-6,59.9,47.8,32.0,28.5,24.2,21.8,68,41,24,30.52,30.26,12,3,12,0.00
2013-3-7,69.8,54.5,37.6,39.8,31.7,22.4,71,44,24,30.30,30.14,15,4,15,0.07
2013-3-8,60.5,55.4,52.3,55.0,48.2,39.7,86,77,56,30.23,30.03,15,6,15,0.00
2013-3-9,67.5,63.5,59.0,64.1,59.7,54.4,93,88,82,30.03,29.67,17,7,17,0.25
2013-3-10,62.3,51.0,37.9,59.3,40.0,31.2,93,67,51,30.15,29.75,25,10,25,0.11
2013-3-11,58.4,38.9,32.0,32.2,27.6,20.5,89,68,29,30.19,30.06,17,5,17,0.00
2013-3-12,65.9,60.1,45.4,35.0,32.6,28.6,60,36,29,30.36,30.20,15,5,15,0.00
2013-3-13,68.0,53.5,37.4,43.6,37.0,32.4,84,57,34,30.49,30.36,12,2,12,0.05
2013-3-14,75.6,59.9,42.4,50.1,43.2,35.5,78,56,38,30.40,30.20,16,3,16,0.00
2013-3-15,79.8,67.4,56.4,55.6,50.1,45.1,82,57,34,30.20,29.91,13,5,13,0.02
2013-3-16,80.0,69.0,56.0,61.1,55.3,49.4,86,63,47,29.92,29.71,18,8,18,0.00
2013-3-17,74.3,67.3,59.0,60.2,57.2,50.4,86,71,54,29.82,29.69,17,5,17,0.00
2013-3-18,67.9,62.7,55.9,62.5,49.6,40.6,92,64,48,30.04,29.67,16,6,16,0.00
2013-3-19,67.5,58.1,47.1,46.7,39.9,35.6,73,52,40,30.16,29.99,16,5,16,0.00
2013-3-20,67.3,57.9,46.2,39.6,34.6,30.4,68,43,27,30.34,30.08,17,4,17,0.00
2013-3-21,69.2,59.6,49.3,58.2,44.7,32.0,81,58,46,30.08,29.60,20,8,20,0.00
2013-3-22,64.8,54.4,46.2,60.5,49.5,42.7,90,84,68,29.90,29.59,15,6,15,0.00
2013-3-23,54.9,49.6,44.2,50.9,46.4,42.1,94,89,82,29.99,29.72,20,4,20,0.42
2013-3-24,51.4,44.7,37.6,46.8,30.4,21.8,91,59,39,30.24,29.87,27,14,27,0.16
2013-3-25,52.5,42.9,32.0,26.0,22.3,19.8,71,45,28,30.47,30.24,20,7,20,0.00
2013-3-26,58.1,44.4,32.0,28.2,25.4,20.1,81,50,30,30.58,30.35,12,2,12,0.00
2013-3-27,68.8,54.7,39.3,44.6,35.0,24.3,63,48,34,30.37,30.14,17,5,17,0.00
2013-3-28,69.5,61.0,48.3,57.8,51.7,41.9,86,72,63,30.26,30.12,14,5,14,0.00
2013-3-29,71.0,61.9,57.8,59.0,56.1,54.1,89,82,64,30.22,30.02,14,5,14,0.01
2013-3-30,76.6,66.7,54.3,64.1,60.0,52.0,94,80,64,30.08,29.91,15,3,15,0.45
2013-3-31,74.2,67.2,59.0,63.0,57.6,50.9,92,73,51,30.02,29.82,16,5,16,0.01
2013-4-1,78.3,65.1,49.0,57.2,51.1,46.1,91,64,38,30.10,29.96,12,2,12,0.04
2013-4-2,67.1,66.5,65.8,58.0,55.2,54.5,75,67,64,30.02,29.95,14,3,14,0.00
2013-4-3,49.0,46.3,43.1,46.8,44.2,41.2,93,92,89,30.21,29.96,12,6,12,1.61
2013-4-4,49.4,45.0,41.2,41.6,40.4,39.1,93,84,72,30.27,30.17,17,7,17,0.02
2013-4-5,67.8,54.1,39.2,50.4,44.5,36.5,92,72,50,30.30,30.07,9,3,9,0.00
2013-4-6,75.3,64.0,54.6,59.6,53.1,46.1,81,68,57,30.07,29.86,17,6,17,0.00
2013-4-7,73.2,66.2,59.7,62.7,59.5,55.3,89,79,69,29.94,29.77,17,7,17,0.00
2013-4-8,74.3,69.8,64.3,65.4,62.6,58.3,84,78,73,29.79,29.68,15,7,15,0.00
2013-4-9,82.8,74.3,67.0,67.9,65.4,62.6,89,75,57,29.73,29.63,20,8,20,0.00
2013-4-10,73.6,47.0,38.4,67.8,43.3,34.4,92,87,63,30.05,29.72,22,11,22,0.61
2013-4-11,62.7,48.6,39.4,41.5,35.1,28.6,80,61,39,30.04,29.86,14,5,14,0.00
2013-4-12,75.4,58.5,43.7,52.9,45.0,38.9,84,64,37,30.03,29.91,12,2,12,0.03
2013-4-13,76.8,64.3,53.4,53.5,49.2,44.8,78,60,42,30.03,29.81,14,4,14,0.00
2013-4-14,80.6,68.6,56.0,66.8,58.8,49.3,88,72,57,29.81,29.57,18,6,18,0.00
2013-4-15,85.8,75.6,67.5,69.8,66.7,64.4,91,75,56,29.77,29.62,16,7,16,0.05
2013-4-16,86.9,82.5,73.5,69.9,68.4,66.7,82,63,54,29.91,29.76,14,8,14,0.00
2013-4-17,85.0,76.7,71.3,69.9,68.6,67.2,92,77,60,29.89,29.66,21,9,21,0.02
2013-4-18,56.7,48.7,45.0,52.9,40.6,35.6,92,75,53,30.21,29.74,22,12,22,1.16
2013-4-19,63.8,49.6,37.1,39.6,33.0,26.1,84,57,29,30.34,30.19,20,6,20,0.00
2013-4-20,71.0,57.9,44.4,43.5,35.8,31.6,70,46,28,30.25,30.06,16,5,16,0.00
2013-4-21,70.3,59.1,46.0,52.6,47.1,37.8,84,65,50,30.25,30.11,12,4,12,0.01
2013-4-22,77.5,62.7,50.8,60.5,53.1,46.1,90,72,53,30.15,29.88,17,4,17,0.03
2013-4-23,66.7,54.2,41.4,61.9,49.3,37.1,92,83,74,30.24,29.82,17,9,17,0.01
2013-4-24,62.0,49.2,38.0,39.9,36.4,31.1,92,64,41,30.38,30.24,21,7,21,0.02
2013-4-25,72.5,62.0,51.2,49.0,42.8,34.9,61,50,38,30.38,30.18,13,4,13,0.00
2013-4-26,71.2,62.4,58.5,65.4,51.1,45.3,84,67,54,30.19,30.02,12,5,12,0.04
2013-4-27,74.2,68.1,58.1,65.2,59.9,53.3,92,76,58,30.14,30.01,13,4,13,0.02
2013-4-28,80.5,66.0,51.2,66.8,58.9,48.6,93,79,59,30.08,29.88,9,2,9,0.00
2013-4-29,83.8,73.4,61.5,67.1,61.9,58.2,93,69,47,29.93,29.80,13,3,13,0.02
2013-4-30,80.9,70.1,59.0,66.4,61.5,55.8,92,75,57,29.86,29.76,12,3,12,0.00
2013-5-1,80.1,68.6,63.0,67.3,63.6,60.3,93,85,61,29.93,29.80,9,3,9,0.02
2013-5-2,52.6,47.0,42.2,49.4,41.0,36.1,92,80,72,30.39,30.13,25,14,25,0.03
2013-5-3,65.7,51.9,38.8,38.2,33.9,30.1,79,54,29,30.37,30.08,21,9,21,0.00
2013-5-4,73.3,57.3,39.9,40.1,36.5,30.8,84,51,25,30.08,29.93,21,6,21,0.00
2013-5-5,69.0,57.1,44.7,48.9,43.1,38.4,81,61,47,30.20,30.05,16,5,16,0.00
2013-5-6,76.1,62.2,46.8,56.2,50.5,43.4,91,68,45,30.16,30.03,10,2,10,0.01
2013-5-7,83.5,70.6,53.8,59.9,55.1,50.0,90,61,38,30.10,29.95,10,2,10,0.00
2013-5-8,85.4,73.4,60.9,61.5,57.3,53.4,79,59,42,30.02,29.88,15,4,15,0.02
2013-5-9,73.1,67.6,64.4,65.9,62.8,57.8,93,85,61,30.03,29.86,13,3,13,0.34
2013-5-10,80.9,71.4,65.2,66.5,63.7,58.1,94,78,55,30.07,29.89,14,2,14,0.00
2013-5-11,80.3,71.4,61.8,58.6,53.9,47.9,81,57,33,30.19,30.04,17,4,17,0.00
2013-5-12,77.5,67.6,57.9,53.5,45.0,38.5,74,46,28,30.30,30.17,14,3,14,0.00
2013-5-13,86.0,71.5,56.2,57.5,49.7,41.0,65,47,31,30.27,30.13,12,3,12,0.01
2013-5-14,85.6,75.2,62.8,63.2,58.4,52.6,79,57,40,30.18,30.00,16,5,16,0.00
2013-5-15,74.2,70.8,68.4,69.0,66.2,62.2,93,86,72,30.06,29.80,16,6,16,0.27
2013-5-16,81.3,74.7,63.9,71.9,69.1,62.1,94,83,71,29.86,29.75,12,4,12,0.27
2013-5-17,89.0,79.8,72.0,75.7,72.0,69.1,94,78,61,29.86,29.78,12,4,12,0.00
2013-5-18,91.2,80.9,70.9,75.0,71.1,67.2,89,73,56,29.90,29.24,17,6,17,0.00
2013-5-19,88.9,77.1,70.3,72.7,68.2,65.2,88,75,57,29.85,29.73,18,8,18,0.00
2013-5-20,89.2,85.0,80.5,73.3,71.4,66.9,73,64,58,29.77,29.65,24,10,24,0.00
2013-5-21,81.8,71.6,60.6,71.6,66.1,57.3,93,83,66,29.90,29.66,20,7,20,0.65
2013-5-22,84.7,68.7,54.2,65.3,59.4,51.9,94,75,44,29.99,29.86,6,1,6,0.00
2013-5-23,84.1,76.5,68.3,73.9,69.6,62.6,94,80,66,30.07,29.89,13,3,13,0.00
2013-5-24,82.8,75.7,66.2,74.1,69.9,63.2,92,83,69,30.21,29.99,12,3,12,0.20
2013-5-25,81.5,70.9,66.1,72.9,67.3,63.6,94,89,70,30.17,30.05,17,3,17,0.16
2013-5-26,85.8,77.4,70.1,72.8,70.3,68.3,94,80,63,30.10,29.56,14,5,14,0.01
2013-5-27,85.2,77.4,70.6,71.3,69.1,66.8,89,76,61,30.00,29.80,14,5,14,0.02
2013-5-28,83.9,80.7,76.5,70.0,68.4,67.3,80,67,59,29.86,29.72,17,7,17,0.00
2013-5-29,83.0,75.4,68.8,73.0,69.9,65.2,93,83,71,29.83,29.71,18,8,18,0.61
2013-5-30,87.5,79.3,72.4,74.8,71.9,69.1,92,79,62,29.81,29.40,18,7,18,0.02
2013-5-31,88.8,81.0,75.4,75.4,73.1,71.1,90,78,61,29.84,29.25,13,6,13,0.02
2013-6-1,88.8,80.1,75.5,75.6,72.0,66.4,84,77,63,29.95,29.13,15,6,15,0.00
2013-6-2,83.8,75.6,68.1,67.8,59.0,53.0,77,58,35,30.09,29.66,12,5,12,0.00
2013-6-3,88.3,75.3,62.5,65.2,60.8,56.6,85,63,41,30.02,29.85,10,2,10,0.01
2013-6-4,90.7,79.8,69.5,72.2,67.8,62.6,85,68,49,29.99,29.34,13,5,13,0.00
2013-6-5,90.2,80.8,72.3,72.6,69.4,67.2,88,69,52,29.94,29.23,13,3,13,0.01
2013-6-6,79.1,73.0,68.7,69.8,67.2,64.2,94,82,70,29.97,29.81,17,3,17,0.54
2013-6-7,83.3,76.8,66.8,64.3,59.4,55.7,89,57,40,29.97,29.89,13,2,13,0.00
2013-6-8,87.1,74.7,59.7,67.2,61.6,56.7,91,66,46,29.96,29.80,10,3,10,0.01
2013-6-9,88.8,77.4,68.1,71.5,68.0,62.5,93,74,52,29.95,29.85,15,4,15,0.25
2013-6-10,96.5,82.5,68.0,73.3,67.8,63.3,91,65,34,29.98,29.83,10,2,10,0.02
2013-6-11,91.8,82.8,72.9,74.7,71.1,66.0,91,69,53,30.03,29.09,12,3,12,0.00
2013-6-12,92.6,83.3,74.1,75.0,71.8,69.8,90,70,49,30.07,29.35,12,3,12,0.01
2013-6-13,96.5,86.2,76.2,74.5,71.3,69.1,82,63,45,30.06,29.59,10,3,10,0.00
2013-6-14,95.3,84.7,73.9,73.9,70.8,66.8,81,64,46,30.00,29.46,7,1,7,0.00
2013-6-15,89.2,81.6,73.3,76.3,72.3,69.9,91,74,58,30.01,29.43,10,2,10,0.05
2013-6-16,94.5,84.3,73.9,75.8,71.4,69.2,90,67,46,30.02,29.39,10,2,10,0.00
2013-6-17,93.0,82.1,68.6,76.3,72.3,65.7,93,73,54,30.06,29.55,20,3,20,0.57
2013-6-18,85.0,75.9,69.0,75.3,70.3,66.6,93,83,60,30.02,29.43,12,3,12,0.68
2013-6-19,90.5,78.9,70.1,77.3,71.5,67.8,94,79,60,30.00,29.55,8,2,8,0.00
2013-6-20,93.3,83.8,74.5,74.8,71.0,68.4,89,68,47,30.05,29.36,12,3,12,0.00
2013-6-21,93.7,84.4,74.1,74.6,70.5,67.8,90,65,46,30.07,29.44,12,4,12,0.00
2013-6-22,94.0,84.1,73.1,74.5,70.5,66.9,87,65,46,30.05,29.34,15,5,15,0.02
2013-6-23,83.0,81.8,80.8,70.1,69.6,69.1,70,67,64,29.93,29.92,9,5,9,0.00
2013-6-24,93.7,88.1,76.1,73.8,70.8,68.6,88,58,45,30.03,29.40,15,6,15,0.02
2013-6-25,95.8,86.3,76.3,73.9,70.2,66.3,84,61,42,29.99,29.49,14,6,14,0.00
2013-6-26,96.5,86.1,75.5,76.6,71.6,67.2,87,63,47,29.96,29.51,16,5,16,0.01
2013-6-27,98.2,87.3,77.0,77.2,71.8,68.0,83,62,41,30.02,29.29,10,2,10,0.00
2013-6-28,102.3,88.5,76.9,73.9,68.7,64.9,73,53,35,29.95,29.45,13,3,13,0.01
2013-6-29,96.6,85.8,72.6,72.3,66.6,62.2,82,55,33,29.88,29.19,12,3,12,0.00
2013-6-30,90.5,82.0,71.3,65.7,61.7,57.4,81,52,37,29.94,29.40,13,4,13,0.00
2013-7-1,86.8,77.8,68.9,63.0,59.9,57.6,76,55,40,30.04,28.71,14,4,14,0.00
2013-7-2,88.5,77.5,65.3,60.0,56.8,53.1,79,51,32,30.10,28.71,13,3,13,0.00
2013-7-3,76.7,65.8,60.7,62.6,57.2,55.5,89,75,49,30.08,29.68,1,0,1,0.00
2013-7-4,94.0,80.9,67.5,65.7,61.4,55.6,79,54,29,30.02,29.04,13,2,13,0.00
2013-7-5,94.6,80.5,70.4,69.4,63.6,60.3,80,59,35,30.01,29.22,8,2,8,0.01
2013-7-6,94.5,88.2,76.3,70.4,65.7,61.9,77,48,38,29.95,29.50,10,4,10,0.00
2013-7-7,95.0,85.1,72.5,73.1,68.7,63.6,82,60,44,30.00,28.55,12,3,12,0.00
2013-7-8,94.8,84.5,75.7,75.5,71.7,65.5,86,67,46,30.09,28.68,12,3,12,0.01
2013-7-9,94.7,85.5,79.6,68.7,66.9,65.5,69,55,41,30.07,29.27,6,1,6,0.00
2013-7-10,99.8,88.8,79.2,73.6,70.4,66.7,81,57,36,30.06,28.14,12,3,12,0.02
2013-7-11,101.7,87.4,79.6,75.4,71.6,67.2,77,61,40,29.97,29.32,13,3,13,0.00
2013-7-12,99.3,86.1,73.6,75.9,71.4,68.3,89,65,41,29.98,29.34,9,2,9,0.01
2013-7-13,99.0,87.9,78.2,75.1,70.0,62.1,79,57,40,29.99,29.26,12,3,12,0.00
2013-7-14,81.3,72.2,67.7,69.9,65.3,60.1,93,80,53,30.03,29.21,7,1,7,0.37
2013-7-15,72.3,69.5,66.2,70.7,67.6,64.2,95,94,90,30.10,28.93,4,0,4,0.68
2013-7-16,88.1,75.0,69.6,75.2,70.9,67.5,95,88,61,30.22,28.31,21,2,21,0.80
2013-7-17,87.0,75.9,69.9,76.3,71.2,67.5,95,86,66,30.24,29.26,17,2,17,0.13
2013-7-18,90.3,80.1,69.9,76.7,71.6,67.9,95,77,54,30.20,28.75,12,1,12,0.00
2013-7-19,93.9,81.4,73.1,74.3,71.6,68.5,92,74,49,30.06,28.30,14,3,14,0.00
2013-7-20,94.1,80.6,73.2,75.7,71.4,68.5,91,75,50,29.99,29.36,10,2,10,0.01
2013-7-21,94.3,88.8,78.9,77.0,73.6,70.4,84,62,49,29.93,29.42,12,4,12,0.01
2013-7-22,95.0,85.7,76.2,77.2,73.8,71.9,90,70,48,29.97,29.06,10,4,10,0.02
2013-7-23,96.2,87.1,78.1,79.1,73.6,67.2,87,66,44,29.96,28.65,12,4,12,0.00
2013-7-24,86.8,80.7,75.7,75.2,70.9,67.6,85,73,58,29.99,28.70,12,3,12,0.03
2013-7-25,93.8,90.1,82.4,78.6,75.0,72.2,78,62,54,29.99,27.67,8,3,8,0.03
2013-7-26,94.3,82.4,76.0,77.2,73.2,70.8,90,75,51,30.01,28.34,15,3,15,0.25
2013-7-27,88.6,79.4,71.8,72.8,68.4,65.2,85,70,49,30.03,28.88,12,4,12,0.02
2013-7-28,91.7,79.9,66.5,73.2,69.1,63.6,93,71,50,29.98,27.97,8,2,8,0.00
2013-7-29,95.0,89.5,79.2,76.5,71.7,65.4,86,57,43,29.98,27.45,12,5,12,0.00
2013-7-30,97.0,86.7,77.3,75.6,71.2,64.6,83,61,46,30.08,26.50,12,4,12,0.00
2013-7-31,101.0,88.9,77.9,76.0,70.8,66.0,80,57,42,30.05,27.98,13,3,13,0.02
2013-8-1,100.8,87.4,78.1,77.4,72.4,70.1,81,62,43,29.99,28.76,9,1,9,0.00
2013-8-2,100.3,89.9,79.0,74.3,71.4,68.5,79,57,38,29.93,28.43,9,3,9,0.01
2013-8-3,97.1,97.1,97.1,70.2,69.7,68.8,42,41,41,29.79,29.23,6,2,6,0.01
2013-8-5,99.8,96.6,87.5,72.3,68.7,64.8,47,41,36,29.92,28.82,9,3,9,0.01
2013-8-6,101.6,93.8,78.5,73.9,69.9,65.0,77,47,35,29.90,27.79,12,4,12,0.01
2013-8-7,102.5,94.1,78.3,74.0,71.1,66.9,82,49,36,29.89,27.06,12,4,12,0.03
2013-8-8,100.3,89.5,78.1,73.9,70.3,63.8,82,55,38,29.87,27.39,10,3,10,0.00
2013-8-9,101.1,88.4,78.6,75.2,69.0,62.3,80,55,30,29.92,26.74,10,3,10,0.01
2013-8-10,94.6,90.9,87.8,70.7,69.8,69.2,55,50,46,30.01,27.43,4,2,4,0.01
2013-8-11,99.1,91.3,80.1,77.1,72.4,68.9,78,55,42,29.95,25.59,16,3,16,0.01
2013-8-12,87.0,79.7,75.9,73.6,70.9,67.8,85,75,54,30.05,27.39,10,1,10,0.01
2013-8-13,95.3,84.0,76.6,81.5,72.5,67.0,91,70,49,29.96,26.51,20,3,20,0.42
2013-9-12,93.7,89.4,80.3,73.1,69.9,67.9,72,54,45,29.95,27.65,7,2,7,0.42
2013-9-13,94.0,84.5,74.1,73.8,70.0,67.0,85,64,43,29.95,27.35,12,2,12,0.01
2013-9-14,91.6,83.1,74.5,70.2,66.3,62.9,71,58,45,29.95,27.54,13,3,13,0.00
2013-9-15,92.7,83.1,72.4,72.8,66.8,62.1,71,59,46,30.02,27.77,9,2,9,0.00
2013-9-16,93.0,83.7,73.0,73.2,67.9,65.3,87,61,42,30.08,26.88,9,2,9,0.01
2013-9-17,91.5,84.0,77.3,71.4,68.2,65.5,74,60,46,30.08,27.63,9,1,9,0.00
2013-9-18,94.8,85.2,76.9,72.9,68.0,64.7,82,58,39,30.02,28.91,10,3,10,0.01
2013-9-19,88.8,82.0,72.8,73.2,70.2,66.6,93,68,57,30.00,27.33,7,2,7,0.32
2013-9-20,73.2,72.1,69.9,71.5,69.9,66.2,95,93,88,29.94,27.95,14,4,14,1.07
2013-9-21,81.0,70.7,60.5,66.0,55.0,45.8,88,62,31,30.00,25.01,14,4,14,0.00
2013-9-22,80.6,67.0,53.6,61.5,55.1,50.7,94,69,40,29.71,25.23,10,2,10,0.02
2013-9-23,83.9,67.0,54.6,61.2,55.6,51.4,91,71,39,29.77,26.51,13,2,13,0.03
2013-9-24,90.3,83.2,66.9,65.6,59.3,55.4,72,46,31,29.67,26.28,12,3,12,0.03
2013-9-25,91.3,74.8,57.5,63.2,56.1,53.3,90,58,29,29.78,23.73,7,1,7,0.01
2013-9-27,86.7,83.3,76.4,73.7,72.0,70.4,83,69,62,29.64,24.45,13,6,13,0.01
2013-9-28,86.5,76.3,66.8,76.4,71.5,64.3,93,85,71,29.66,24.94,16,5,16,0.79
2013-9-29,78.5,74.7,63.8,62.5,58.5,52.1,84,58,41,29.03,24.97,12,5,12,0.79
2013-9-30,84.2,76.6,56.9,63.8,59.7,54.0,91,58,38,29.62,25.58,9,2,9,0.79
2013-10-1,70.3,68.6,63.9,63.3,62.5,60.3,88,81,78,29.60,26.65,0,0,0,0.00
2013-10-2,86.8,81.5,74.2,73.4,71.1,69.2,89,71,60,29.62,25.17,12,5,12,0.00
2013-10-3,88.6,79.7,72.9,74.9,71.2,69.0,91,77,56,29.63,24.02,13,5,13,0.00
2013-10-4,87.2,79.2,72.5,72.0,70.3,68.2,92,75,57,29.63,24.63,13,5,13,0.02
2013-10-5,78.5,63.8,51.4,70.3,57.6,43.8,93,81,60,29.60,25.23,17,6,17,0.32
2013-10-6,73.1,59.8,49.2,50.6,45.0,36.5,93,64,27,30.03,28.05,14,5,14,0.01
2013-10-7,78.2,62.2,47.2,51.4,46.4,41.0,92,62,27,30.05,26.98,10,2,10,0.00
2013-10-8,79.3,63.4,47.0,52.7,48.9,43.9,91,64,34,30.02,27.25,7,2,7,0.00
2013-10-9,80.9,67.4,53.4,60.7,55.0,50.2,90,67,42,29.85,25.60,12,2,12,0.00
2013-10-10,74.0,68.0,57.1,64.4,60.5,53.6,91,77,72,28.83,26.52,7,2,7,0.00
2013-10-11,84.4,78.0,74.0,71.8,67.5,64.4,82,70,64,27.89,23.71,10,2,10,0.00
2013-10-12,87.4,77.2,69.3,76.5,71.0,65.6,93,82,62,28.83,23.70,13,3,13,0.00
2013-10-13,73.8,70.4,66.8,69.0,66.8,64.3,93,88,84,29.85,24.63,7,2,7,0.00
2013-10-14,72.4,70.2,68.2,70.9,68.4,66.3,95,94,89,29.69,24.07,14,4,14,1.05
2013-10-15,76.0,69.6,60.4,72.6,67.3,58.4,94,92,87,29.76,25.48,12,4,12,0.24
2013-10-19,61.4,51.5,45.0,44.8,42.5,40.1,84,72,48,29.99,29.14,2,0,0,0.24
2013-10-20,69.8,52.6,39.1,48.3,42.6,36.3,92,72,40,30.01,28.23,14,3,14,0.00
2013-10-21,71.5,59.6,52.2,63.2,53.2,47.6,91,80,67,30.01,28.35,13,3,13,0.02
2013-10-22,72.5,58.3,43.3,49.9,45.5,40.6,91,66,38,30.10,29.16,12,3,12,0.00
2013-10-23,79.7,70.1,51.1,54.8,51.5,45.1,83,54,38,30.01,29.19,7,2,7,0.00
2013-10-24,77.1,68.0,59.9,54.9,50.3,46.2,62,54,41,30.07,28.41,9,2,9,0.00
2013-10-25,67.2,59.3,50.6,51.8,48.3,44.4,86,68,55,30.30,28.44,12,3,12,0.02
2013-10-26,74.9,64.1,55.7,63.9,56.4,48.8,95,76,67,30.08,27.73,12,3,12,1.27
2013-10-27,66.8,61.6,58.5,59.6,57.5,56.6,94,87,74,29.87,28.47,5,1,5,1.27
2013-10-28,75.1,67.6,59.7,67.3,63.7,58.0,95,87,76,30.02,27.78,9,3,9,1.29
2013-10-29,75.3,70.9,68.3,69.8,67.4,65.9,92,89,83,29.13,26.32,10,4,10,0.00
2013-10-30,71.1,68.5,64.7,68.4,66.2,63.1,95,93,90,28.79,25.76,12,4,12,0.06
2013-10-31,73.9,63.5,51.5,58.7,48.6,43.8,85,62,38,28.68,26.89,17,6,17,0.06
2013-11-1,73.5,62.7,45.7,54.1,49.3,43.2,92,64,45,29.81,27.07,10,2,10,0.00
2013-11-2,63.3,56.3,46.7,45.0,41.0,37.8,81,58,39,30.22,29.26,12,4,12,0.00
2013-11-3,64.9,52.2,38.7,44.4,40.6,35.7,91,68,45,30.15,29.46,10,3,10,0.00
2013-11-4,59.0,54.2,51.2,57.6,50.3,48.2,95,87,77,30.00,29.45,6,4,6,0.57
2013-11-5,68.6,65.6,59.0,66.8,64.0,57.6,95,94,94,30.00,28.57,9,4,9,0.63
2013-11-6,70.2,52.7,45.7,67.8,48.9,39.2,92,87,78,30.31,29.02,14,6,14,0.69
2013-11-7,59.8,49.7,36.4,44.8,40.9,33.7,93,73,47,30.45,29.65,6,1,6,0.00
2013-11-8,63.6,53.7,38.6,45.6,41.9,35.9,91,67,47,30.34,29.55,8,3,8,0.00
2013-11-9,66.7,62.1,57.2,54.6,52.0,50.0,78,70,62,30.14,28.74,9,4,9,0.00
2013-11-10,61.7,56.4,53.5,52.6,49.3,47.1,81,77,60,30.22,29.87,4,1,4,0.00
2013-11-11,61.5,57.3,51.2,56.0,53.4,49.5,94,87,82,30.23,30.07,1,0,1,0.00
2013-11-12,54.5,44.3,36.5,50.4,30.3,21.0,86,59,40,30.49,28.90,16,7,16,0.01
2013-11-13,49.3,40.6,27.1,28.4,25.6,21.2,84,57,41,30.64,28.20,5,1,5,0.01
2013-11-15,61.7,61.6,61.6,57.8,57.6,57.4,87,87,86,28.01,27.06,5,4,5,0.01
2013-11-16,64.3,64.1,61.7,61.0,60.7,57.8,89,89,87,29.13,28.75,9,5,9,0.01